Time;durP1;ratioP1;P1;durP2;ratioP2;P2;SDS_P1;SDS_P2;PMS_P1;PMS_P2;Temp;Humidity;BMP_temperature;BMP_pressure;BME280_temperature;BME280_humidity;BME280_pressure;Samples;Min_cycle;Max_cycle;Signal;HPM_P1;HPM_P2
2022/12/25 00:00:46;;;;;;;19.50;8.33;;;10.70;99.90;;;;;;5062465;28;20275;-64
2022/12/25 00:03:14;;;;;;;16.10;8.43;;;10.60;99.90;;;;;;5067168;28;20647;-64
2022/12/25 00:05:45;;;;;;;19.70;8.27;;;10.60;99.90;;;;;;5072809;28;20202;-64
2022/12/25 00:08:13;;;;;;;18.57;8.30;;;10.60;99.90;;;;;;5058510;28;20232;-64
2022/12/25 00:10:41;;;;;;;20.87;8.27;;;10.60;99.90;;;;;;5062002;28;20785;-64
2022/12/25 00:13:14;;;;;;;16.00;7.63;;;10.50;99.90;;;;;;5066833;28;20200;-64
2022/12/25 00:15:42;;;;;;;18.40;7.20;;;10.60;99.90;;;;;;5065163;28;20321;-64
2022/12/25 00:18:11;;;;;;;21.10;7.37;;;10.60;99.90;;;;;;5069348;28;20203;-64
2022/12/25 00:20:39;;;;;;;15.77;7.07;;;10.60;99.90;;;;;;5067177;28;20193;-64
2022/12/25 00:23:08;;;;;;;14.43;6.30;;;10.50;99.90;;;;;;5064849;28;20222;-64
2022/12/25 00:25:39;;;;;;;12.20;6.40;;;10.60;99.90;;;;;;5101627;28;20195;-64
2022/12/25 00:28:08;;;;;;;16.87;6.80;;;10.50;99.90;;;;;;5073385;28;20215;-64
2022/12/25 00:30:39;;;;;;;13.57;6.60;;;10.50;99.90;;;;;;5067508;28;20245;-64
2022/12/25 00:33:08;;;;;;;16.23;6.63;;;10.50;99.90;;;;;;5069096;28;20248;-64
2022/12/25 00:35:37;;;;;;;13.27;5.60;;;10.50;99.90;;;;;;5067985;28;20196;-64
2022/12/25 00:38:05;;;;;;;9.27;5.47;;;10.50;99.90;;;;;;5071176;28;20232;-64
2022/12/25 00:40:33;;;;;;;12.13;5.60;;;10.50;99.90;;;;;;5076151;28;20210;-64
2022/12/25 00:43:02;;;;;;;13.17;6.13;;;10.50;99.90;;;;;;5074053;28;20202;-64
2022/12/25 00:45:32;;;;;;;11.70;5.10;;;10.50;99.90;;;;;;5071181;28;20196;-64
2022/12/25 00:48:02;;;;;;;13.17;4.40;;;10.60;99.90;;;;;;5070594;28;20737;-64
2022/12/25 00:50:31;;;;;;;9.37;5.00;;;10.50;99.90;;;;;;5073376;28;20215;-64
2022/12/25 00:52:59;;;;;;;8.83;4.60;;;10.50;99.90;;;;;;5072529;28;20251;-64
2022/12/25 00:55:27;;;;;;;8.77;4.30;;;10.50;99.90;;;;;;5073944;28;20672;-63
2022/12/25 00:57:56;;;;;;;8.93;4.17;;;10.50;99.90;;;;;;5070314;28;20279;-64
2022/12/25 01:00:24;;;;;;;6.77;3.60;;;10.50;99.90;;;;;;5067864;28;20192;-64
2022/12/25 01:02:52;;;;;;;12.67;4.23;;;10.50;99.90;;;;;;5074253;28;20199;-64
2022/12/25 01:05:23;;;;;;;10.23;3.57;;;10.40;99.90;;;;;;5068228;28;20215;-64
2022/12/25 01:07:51;;;;;;;9.07;4.23;;;10.40;99.90;;;;;;5070894;28;20200;-64
2022/12/25 01:10:21;;;;;;;3.53;3.23;;;10.40;99.90;;;;;;5070254;28;20224;-64
2022/12/25 01:12:50;;;;;;;13.30;4.30;;;10.40;99.90;;;;;;5072872;28;20200;-64
2022/12/25 01:15:19;;;;;;;7.57;3.67;;;10.40;99.90;;;;;;5070934;28;20200;-64
2022/12/25 01:17:48;;;;;;;9.73;3.70;;;10.40;99.90;;;;;;5072855;28;20192;-64
2022/12/25 01:20:18;;;;;;;8.17;3.77;;;10.40;99.90;;;;;;5075126;28;20192;-64
2022/12/25 01:22:47;;;;;;;10.80;3.47;;;10.40;99.90;;;;;;5071328;28;20212;-64
2022/12/25 01:25:16;;;;;;;8.33;3.77;;;10.40;99.90;;;;;;5101959;27;20199;-64
2022/12/25 01:27:44;;;;;;;8.93;3.60;;;10.40;99.90;;;;;;5074182;28;20200;-64
2022/12/25 01:30:13;;;;;;;8.07;3.13;;;10.40;99.90;;;;;;5072930;28;20717;-64
2022/12/25 01:32:41;;;;;;;8.47;3.53;;;10.30;99.90;;;;;;5074072;28;20204;-64
2022/12/25 01:35:10;;;;;;;6.60;3.53;;;10.30;99.90;;;;;;5073020;28;20211;-64
2022/12/25 01:37:39;;;;;;;5.60;3.47;;;10.30;99.90;;;;;;5072871;28;20192;-64
2022/12/25 01:40:10;;;;;;;9.30;3.37;;;10.30;99.90;;;;;;5074697;28;20188;-64
2022/12/25 01:42:38;;;;;;;7.90;3.70;;;10.30;99.90;;;;;;5073083;28;20566;-64
2022/12/25 01:45:36;;;;;;;10.83;3.60;;;10.30;99.90;;;;;;5071250;28;20634;-64
2022/12/25 01:48:09;;;;;;;8.80;3.57;;;10.30;99.90;;;;;;5073665;28;20204;-64
2022/12/25 01:50:41;;;;;;;10.50;4.07;;;10.30;99.90;;;;;;5066844;28;20218;-64
2022/12/25 01:53:11;;;;;;;9.13;3.47;;;10.30;99.90;;;;;;5073898;28;20546;-64
2022/12/25 01:55:42;;;;;;;11.57;4.30;;;10.30;99.90;;;;;;5070776;28;20198;-64
2022/12/25 01:58:10;;;;;;;12.37;3.73;;;10.30;99.90;;;;;;5082258;28;20191;-64
2022/12/25 02:00:39;;;;;;;7.67;3.53;;;10.20;99.90;;;;;;5063962;28;20191;-64
2022/12/25 02:03:08;;;;;;;7.40;3.50;;;10.20;99.90;;;;;;5073710;28;20253;-64
2022/12/25 02:05:36;;;;;;;10.27;3.80;;;10.20;99.90;;;;;;5102372;28;20192;-64
2022/12/25 02:08:09;;;;;;;6.77;3.80;;;10.20;99.90;;;;;;5073651;28;20193;-64
2022/12/25 02:10:38;;;;;;;5.90;3.03;;;10.20;99.90;;;;;;5067739;28;20232;-66
2022/12/25 02:13:08;;;;;;;6.87;3.30;;;10.20;99.90;;;;;;5066350;28;20192;-64
2022/12/25 02:15:45;;;;;;;10.63;3.30;;;10.20;99.90;;;;;;5068003;28;20189;-64
2022/12/25 02:18:21;;;;;;;8.40;3.30;;;10.20;99.90;;;;;;5066281;28;20196;-64
2022/12/25 02:21:10;;;;;;;6.63;3.30;;;10.20;99.90;;;;;;5067695;28;20188;-64
2022/12/25 02:24:06;;;;;;;7.10;3.50;;;10.10;99.90;;;;;;5071006;28;20191;-64
2022/12/25 02:26:57;;;;;;;9.20;4.03;;;10.10;99.90;;;;;;5103202;27;20196;-64
2022/12/25 02:29:33;;;;;;;7.17;3.87;;;10.10;99.90;;;;;;5067721;28;20238;-64
2022/12/25 02:32:13;;;;;;;8.07;3.97;;;10.10;99.90;;;;;;5077898;28;20253;-64
2022/12/25 02:34:46;;;;;;;10.83;4.40;;;10.10;99.90;;;;;;5104083;27;20264;-64
2022/12/25 02:37:23;;;;;;;12.07;4.40;;;10.10;99.90;;;;;;5072124;28;20199;-63
2022/12/25 02:39:59;;;;;;;9.47;4.00;;;10.20;99.90;;;;;;5068665;28;20192;-64
2022/12/25 03:08:02;;;;;;;8.63;3.23;;;10.10;99.90;;;;;;5072377;28;20279;-64
2022/12/25 03:13:24;;;;;;;6.07;3.17;;;10.10;99.90;;;;;;5066744;28;20634;-64
2022/12/25 03:18:41;;;;;;;6.10;3.23;;;10.00;99.90;;;;;;5064867;28;21161;-64
2022/12/25 03:26:54;;;;;;;3.20;2.77;;;10.00;99.90;;;;;;5070898;28;20196;-64
2022/12/25 03:32:19;;;;;;;6.23;2.87;;;10.00;99.90;;;;;;5071135;28;20191;-64
2022/12/25 04:36:47;;;;;;;6.87;3.97;;;10.00;99.90;;;;;;5075502;28;20663;-64
2022/12/25 04:39:15;;;;;;;8.33;4.40;;;10.00;99.90;;;;;;5064884;28;20195;-64
2022/12/25 04:41:45;;;;;;;6.93;4.40;;;10.00;99.90;;;;;;5070214;28;20196;-64
2022/12/25 04:44:14;;;;;;;9.97;4.67;;;10.00;99.90;;;;;;5068141;28;20207;-63
2022/12/25 04:46:42;;;;;;;5.50;3.57;;;10.00;99.90;;;;;;5074502;28;20192;-63
2022/12/25 04:49:10;;;;;;;6.77;4.03;;;10.00;99.90;;;;;;5067067;28;20215;-64
2022/12/25 04:51:39;;;;;;;9.00;4.10;;;10.00;99.90;;;;;;5068921;28;20219;-64
2022/12/25 04:54:08;;;;;;;6.77;3.80;;;9.90;99.90;;;;;;5069211;28;20195;-64
2022/12/25 04:56:36;;;;;;;6.03;3.93;;;9.90;99.90;;;;;;5079087;28;20206;-64
2022/12/25 04:59:14;;;;;;;5.87;3.83;;;10.00;99.90;;;;;;5071358;28;20200;-64
2022/12/25 05:01:42;;;;;;;5.33;3.70;;;10.00;99.90;;;;;;5068528;28;20184;-64
2022/12/25 05:04:11;;;;;;;5.73;3.67;;;9.90;99.90;;;;;;5071460;28;20212;-64
2022/12/25 05:06:40;;;;;;;6.43;4.30;;;10.00;99.90;;;;;;5074624;28;20199;-64
2022/12/25 05:09:09;;;;;;;7.47;3.97;;;10.00;99.90;;;;;;5080247;28;20195;-64
2022/12/25 05:11:38;;;;;;;7.57;3.73;;;10.00;99.90;;;;;;5069957;28;20690;-63
2022/12/25 05:14:06;;;;;;;8.40;4.13;;;10.00;99.90;;;;;;5067886;28;20188;-64
2022/12/25 05:16:36;;;;;;;9.80;3.90;;;9.90;99.90;;;;;;5069088;28;20249;-63
2022/12/25 05:19:04;;;;;;;6.67;3.90;;;9.90;99.90;;;;;;5073440;28;20234;-64
2022/12/25 05:21:33;;;;;;;10.00;4.27;;;9.90;99.90;;;;;;5068611;28;20224;-63
2022/12/25 05:24:01;;;;;;;4.60;4.17;;;9.90;99.90;;;;;;5081226;28;20203;-64
2022/12/25 05:26:30;;;;;;;4.67;3.90;;;9.90;99.90;;;;;;5077078;28;20196;-64
2022/12/25 05:28:59;;;;;;;7.50;4.53;;;9.90;99.90;;;;;;5079389;28;20202;-63
2022/12/25 05:31:28;;;;;;;6.73;4.30;;;9.90;99.90;;;;;;5072092;28;20773;-64
2022/12/25 05:33:57;;;;;;;4.43;4.03;;;9.90;99.90;;;;;;5069090;28;20193;-64
2022/12/25 05:36:26;;;;;;;5.60;4.07;;;9.90;99.90;;;;;;5073348;28;20222;-64
2022/12/25 05:38:54;;;;;;;6.43;3.73;;;9.90;99.90;;;;;;5074619;28;20198;-64
2022/12/25 05:41:23;;;;;;;8.10;4.43;;;9.90;99.90;;;;;;5075441;28;20211;-64
2022/12/25 05:43:56;;;;;;;8.07;4.10;;;9.90;99.90;;;;;;5068281;28;20195;-64
2022/12/25 05:46:24;;;;;;;6.50;4.00;;;9.90;99.90;;;;;;5080168;28;20206;-63
2022/12/25 05:48:53;;;;;;;4.80;3.97;;;9.90;99.90;;;;;;5075713;28;20515;-64
2022/12/25 05:51:23;;;;;;;5.53;4.00;;;9.90;99.90;;;;;;5071402;28;20222;-64
2022/12/25 05:53:53;;;;;;;4.73;4.20;;;9.90;99.90;;;;;;5069155;28;20206;-64
2022/12/25 05:56:21;;;;;;;5.70;4.23;;;9.90;99.90;;;;;;5070862;28;20199;-64
2022/12/25 05:58:50;;;;;;;4.27;3.83;;;9.90;99.90;;;;;;5073415;28;20204;-64
2022/12/25 06:01:21;;;;;;;7.00;4.43;;;9.90;99.90;;;;;;5073266;28;20238;-63
2022/12/25 06:03:49;;;;;;;7.63;4.37;;;9.80;99.90;;;;;;5068740;28;20282;-64
2022/12/25 06:06:18;;;;;;;5.87;4.50;;;9.90;99.90;;;;;;5076444;28;20204;-64
2022/12/25 06:08:48;;;;;;;7.27;4.40;;;9.90;99.90;;;;;;5073473;28;20188;-64
2022/12/25 06:11:16;;;;;;;6.77;4.27;;;9.90;99.90;;;;;;5075022;28;20228;-64
2022/12/25 06:13:48;;;;;;;7.17;4.17;;;9.90;99.90;;;;;;5067846;28;20199;-63
2022/12/25 06:16:17;;;;;;;4.70;4.20;;;9.80;99.90;;;;;;5074193;28;20199;-63
2022/12/25 06:18:50;;;;;;;10.20;4.73;;;9.80;99.90;;;;;;5077895;28;20279;-64
2022/12/25 06:21:19;;;;;;;4.93;4.30;;;9.70;99.90;;;;;;5072486;28;20192;-64
2022/12/25 06:23:49;;;;;;;7.90;4.90;;;9.70;99.90;;;;;;5070381;28;20188;-64
2022/12/25 06:26:19;;;;;;;4.90;4.53;;;9.70;99.90;;;;;;5073186;28;20662;-64
2022/12/25 06:28:48;;;;;;;7.60;4.40;;;9.70;99.90;;;;;;5072324;28;20655;-63
2022/12/25 06:31:18;;;;;;;8.33;4.60;;;9.70;99.90;;;;;;5070279;28;20208;-64
2022/12/25 06:33:47;;;;;;;7.93;4.40;;;9.70;99.90;;;;;;5067388;28;20192;-63
2022/12/25 06:36:18;;;;;;;5.50;4.40;;;9.70;99.90;;;;;;5071898;28;20203;-63
2022/12/25 06:38:49;;;;;;;7.40;4.43;;;9.70;99.90;;;;;;5072792;28;20199;-64
2022/12/25 06:41:20;;;;;;;6.40;4.00;;;9.70;99.90;;;;;;5073420;28;20188;-63
2022/12/25 06:43:50;;;;;;;8.53;4.10;;;9.70;99.90;;;;;;5065003;28;20199;-64
2022/12/25 06:46:20;;;;;;;5.90;4.00;;;9.70;99.90;;;;;;5102032;28;20609;-64
2022/12/25 06:48:49;;;;;;;8.23;3.87;;;9.70;99.90;;;;;;5066751;28;20215;-64
2022/12/25 06:51:18;;;;;;;4.27;3.87;;;9.60;99.90;;;;;;5068115;28;20662;-64
2022/12/25 06:53:48;;;;;;;4.23;3.83;;;9.60;99.90;;;;;;5075558;28;21025;-64
2022/12/25 06:56:20;;;;;;;7.37;4.77;;;9.60;99.90;;;;;;5069447;28;20203;-64
2022/12/25 06:58:50;;;;;;;5.10;4.50;;;9.60;99.90;;;;;;5063625;28;20283;-64
2022/12/25 07:01:21;;;;;;;5.23;4.07;;;9.60;99.90;;;;;;5071313;28;20662;-64
2022/12/25 07:03:52;;;;;;;4.93;4.43;;;9.60;99.90;;;;;;5069789;28;20226;-64
2022/12/25 07:06:21;;;;;;;5.13;4.50;;;9.60;99.90;;;;;;5067443;28;20211;-64
2022/12/25 07:08:50;;;;;;;7.03;4.80;;;9.60;99.90;;;;;;5072641;28;20196;-64
2022/12/25 07:11:19;;;;;;;6.20;4.70;;;9.60;99.90;;;;;;5076893;28;20243;-63
2022/12/25 07:13:48;;;;;;;7.37;5.10;;;9.60;99.90;;;;;;5072952;28;20188;-63
2022/12/25 07:16:17;;;;;;;7.27;5.07;;;9.70;99.90;;;;;;5074365;28;20230;-64
2022/12/25 07:18:46;;;;;;;7.43;5.50;;;9.70;99.90;;;;;;5073230;28;20192;-64
2022/12/25 07:21:16;;;;;;;5.73;5.17;;;9.70;99.90;;;;;;5066454;28;20196;-64
2022/12/25 07:23:45;;;;;;;8.00;5.10;;;9.80;99.90;;;;;;5072154;28;20661;-63
2022/12/25 07:26:17;;;;;;;8.23;4.97;;;9.80;99.90;;;;;;5067095;28;20279;-64
2022/12/25 07:28:45;;;;;;;6.90;5.50;;;9.80;99.90;;;;;;5065457;28;20196;-63
2022/12/25 07:31:16;;;;;;;5.60;5.07;;;9.70;99.90;;;;;;5066494;28;20200;-64
2022/12/25 07:33:45;;;;;;;8.30;5.53;;;9.70;99.90;;;;;;5070166;28;20208;-64
2022/12/25 07:36:14;;;;;;;9.17;5.30;;;9.70;99.90;;;;;;5069916;28;20211;-64
2022/12/25 07:38:43;;;;;;;9.47;5.43;;;9.70;99.90;;;;;;5069599;28;20562;-64
2022/12/25 07:41:12;;;;;;;9.47;5.37;;;9.70;99.90;;;;;;5068180;28;20202;-64
2022/12/25 07:43:42;;;;;;;10.20;6.03;;;9.70;99.90;;;;;;5070379;28;20215;-64
2022/12/25 07:46:11;;;;;;;11.03;5.60;;;9.70;99.90;;;;;;5069474;28;20188;-64
2022/12/25 07:48:39;;;;;;;7.97;5.70;;;9.70;99.90;;;;;;5070808;28;20224;-64
2022/12/25 07:51:12;;;;;;;6.60;5.37;;;9.70;99.90;;;;;;5063800;28;20202;-64
2022/12/25 07:53:42;;;;;;;7.60;5.03;;;9.70;99.90;;;;;;5064760;28;20212;-64
2022/12/25 07:56:13;;;;;;;11.00;6.07;;;9.80;99.90;;;;;;5067943;28;20204;-64
2022/12/25 07:58:43;;;;;;;7.60;5.43;;;9.80;99.90;;;;;;5072874;28;20199;-64
2022/12/25 08:01:15;;;;;;;6.77;5.50;;;9.80;99.90;;;;;;5069028;28;20199;-64
2022/12/25 08:03:44;;;;;;;7.43;5.97;;;9.80;99.90;;;;;;5069785;28;20188;-64
2022/12/25 08:06:15;;;;;;;6.93;5.37;;;9.80;99.90;;;;;;5069587;28;20200;-65
2022/12/25 08:08:43;;;;;;;8.73;5.73;;;9.80;99.90;;;;;;5072416;28;20196;-65
2022/12/25 08:11:12;;;;;;;7.73;5.87;;;9.70;99.90;;;;;;5070614;28;20250;-65
2022/12/25 08:13:42;;;;;;;10.27;6.20;;;9.70;99.90;;;;;;5071239;28;20231;-65
2022/12/25 08:16:11;;;;;;;10.17;6.73;;;9.70;99.90;;;;;;5084936;28;20200;-65
2022/12/25 08:18:41;;;;;;;7.33;5.57;;;9.70;99.90;;;;;;5074968;28;20618;-65
2022/12/25 08:21:12;;;;;;;8.80;6.30;;;9.70;99.90;;;;;;5072626;28;20196;-65
2022/12/25 08:23:42;;;;;;;6.53;5.60;;;9.70;99.90;;;;;;5068164;28;20188;-65
2022/12/25 08:26:13;;;;;;;9.13;5.73;;;9.70;99.90;;;;;;5065620;28;20219;-65
2022/12/25 08:28:43;;;;;;;9.37;6.20;;;9.70;99.90;;;;;;5073745;28;20203;-65
2022/12/25 08:31:17;;;;;;;7.20;6.43;;;9.70;99.90;;;;;;5070889;28;20192;-66
2022/12/25 08:33:46;;;;;;;7.37;6.60;;;9.60;99.90;;;;;;5099321;28;20682;-66
2022/12/25 08:36:15;;;;;;;8.73;6.03;;;9.60;99.90;;;;;;5071591;28;20542;-66
2022/12/25 08:38:44;;;;;;;9.10;6.47;;;9.60;99.90;;;;;;5067475;28;20185;-66
2022/12/25 08:41:13;;;;;;;9.77;6.73;;;9.70;99.90;;;;;;5074138;28;20253;-66
2022/12/25 08:43:43;;;;;;;9.37;6.63;;;9.60;99.90;;;;;;5071385;28;20275;-65
2022/12/25 08:46:12;;;;;;;10.17;7.10;;;9.60;99.90;;;;;;5071985;28;20203;-65
2022/12/25 08:48:42;;;;;;;11.53;6.87;;;9.60;99.90;;;;;;5098507;28;20208;-65
2022/12/25 08:51:14;;;;;;;10.80;7.03;;;9.50;99.90;;;;;;5074802;28;20339;-65
2022/12/25 08:53:43;;;;;;;9.30;6.80;;;9.50;99.90;;;;;;5073369;28;20716;-65
2022/12/25 08:56:12;;;;;;;12.27;8.70;;;9.40;99.90;;;;;;5072019;28;20650;-65
2022/12/25 08:58:40;;;;;;;13.20;8.07;;;9.40;99.90;;;;;;5076381;28;20657;-65
2022/12/25 09:01:10;;;;;;;10.07;7.50;;;9.40;99.90;;;;;;5072416;28;20188;-65
2022/12/25 09:03:39;;;;;;;9.17;7.50;;;9.40;99.90;;;;;;5070259;28;20190;-66
2022/12/25 09:06:09;;;;;;;11.23;7.70;;;9.40;99.90;;;;;;5076274;28;20227;-65
2022/12/25 09:08:38;;;;;;;20.00;8.03;;;9.50;99.90;;;;;;5074411;28;20258;-65
2022/12/25 09:11:16;;;;;;;13.40;8.53;;;9.40;99.90;;;;;;5067917;28;20234;-65
2022/12/25 09:13:45;;;;;;;18.53;9.03;;;9.40;99.90;;;;;;5064666;28;20232;-65
2022/12/25 09:16:17;;;;;;;19.97;9.70;;;9.50;99.90;;;;;;5071603;28;20200;-66
2022/12/25 09:18:46;;;;;;;16.77;9.47;;;9.50;99.90;;;;;;5071325;28;20188;-66
2022/12/25 09:21:15;;;;;;;15.17;9.23;;;9.50;99.90;;;;;;5069735;28;20280;-66
2022/12/25 09:23:44;;;;;;;14.27;9.80;;;9.40;99.90;;;;;;5070710;28;20188;-65
2022/12/25 09:26:14;;;;;;;21.60;10.77;;;9.40;99.90;;;;;;5073556;28;20196;-66
2022/12/25 09:28:43;;;;;;;19.40;10.80;;;9.40;99.90;;;;;;5068423;28;20184;-66
2022/12/25 09:31:22;;;;;;;20.87;10.03;;;9.40;99.90;;;;;;5064878;28;20654;-66
2022/12/25 09:33:51;;;;;;;19.70;10.63;;;9.40;99.90;;;;;;5069644;28;20218;-66
2022/12/25 09:36:22;;;;;;;25.03;10.70;;;9.40;99.90;;;;;;5065637;28;20211;-66
2022/12/25 09:38:50;;;;;;;23.73;9.97;;;9.50;99.90;;;;;;5071121;28;20215;-66
2022/12/25 09:41:27;;;;;;;23.50;10.37;;;9.50;99.90;;;;;;5079981;28;20204;-66
2022/12/25 09:44:00;;;;;;;21.83;11.10;;;9.50;99.90;;;;;;5073078;28;20625;-66
2022/12/25 09:46:38;;;;;;;18.70;11.00;;;9.50;99.90;;;;;;5070312;28;20661;-66
2022/12/25 09:49:13;;;;;;;23.53;11.30;;;9.40;99.90;;;;;;5069175;28;20234;-66
2022/12/25 09:51:44;;;;;;;25.67;11.10;;;9.40;99.90;;;;;;5068736;28;20187;-66
2022/12/25 09:54:18;;;;;;;19.77;10.90;;;9.50;99.90;;;;;;5071573;28;20767;-66
2022/12/25 09:56:46;;;;;;;19.13;10.80;;;9.40;99.90;;;;;;5072076;28;20187;-66
2022/12/25 09:59:23;;;;;;;22.03;10.90;;;9.40;99.90;;;;;;5075960;28;20550;-66
2022/12/25 10:02:02;;;;;;;26.60;12.60;;;9.40;99.90;;;;;;5071084;28;20196;-66
2022/12/25 10:04:56;;;;;;;23.00;11.43;;;9.40;99.90;;;;;;5067882;28;20212;-66
2022/12/25 10:07:34;;;;;;;22.23;10.47;;;9.40;99.90;;;;;;5068390;28;20192;-66
2022/12/25 10:10:13;;;;;;;20.47;10.83;;;9.40;99.90;;;;;;5073501;28;20195;-66
2022/12/25 10:12:52;;;;;;;19.97;10.63;;;9.40;99.90;;;;;;5071327;28;20195;-66
2022/12/25 10:15:32;;;;;;;30.20;13.43;;;9.40;99.90;;;;;;5073703;28;20650;-66
2022/12/25 10:18:33;;;;;;;25.30;13.00;;;9.40;99.90;;;;;;5073143;28;20230;-66
2022/12/25 10:21:03;;;;;;;31.13;17.07;;;9.40;99.90;;;;;;5068777;28;20220;-66
2022/12/25 10:23:44;;;;;;;29.57;14.33;;;9.50;99.90;;;;;;5065387;28;20204;-67
2022/12/25 10:26:15;;;;;;;29.40;14.30;;;9.50;99.90;;;;;;5067669;28;20695;-67
2022/12/25 10:28:49;;;;;;;31.73;15.07;;;9.50;99.90;;;;;;5065823;28;20558;-66
2022/12/25 10:31:22;;;;;;;31.57;15.40;;;9.50;99.90;;;;;;5068549;28;20204;-66
2022/12/25 10:33:53;;;;;;;35.03;15.40;;;9.50;99.90;;;;;;5071010;28;20212;-66
2022/12/25 10:36:24;;;;;;;32.30;15.50;;;9.50;99.90;;;;;;5069318;28;20207;-66
2022/12/25 10:38:53;;;;;;;28.10;14.97;;;9.50;99.90;;;;;;5065092;28;20207;-66
2022/12/25 10:41:43;;;;;;;30.53;15.53;;;9.50;99.90;;;;;;5066532;28;20198;-66
2022/12/25 10:44:19;;;;;;;32.50;15.47;;;9.50;99.90;;;;;;5068597;28;20193;-66
2022/12/25 10:46:49;;;;;;;32.33;14.97;;;9.50;99.90;;;;;;5067782;28;20662;-66
2022/12/25 10:49:21;;;;;;;30.37;14.47;;;9.60;99.90;;;;;;5071633;28;20283;-66
2022/12/25 10:51:50;;;;;;;36.07;14.40;;;9.60;99.90;;;;;;5068278;28;20196;-66
2022/12/25 10:54:22;;;;;;;31.83;15.23;;;9.60;99.90;;;;;;5066010;28;20211;-66
2022/12/25 10:56:56;;;;;;;32.17;14.23;;;9.60;99.90;;;;;;5062116;28;20195;-66
2022/12/25 10:59:25;;;;;;;27.53;13.20;;;9.60;99.90;;;;;;5064239;28;20192;-66
2022/12/25 11:01:53;;;;;;;28.30;13.87;;;9.70;99.90;;;;;;5083332;28;20212;-66
2022/12/25 11:04:27;;;;;;;29.27;13.03;;;9.70;99.90;;;;;;5068776;28;20200;-66
2022/12/25 11:07:05;;;;;;;24.97;12.93;;;9.70;99.90;;;;;;5072320;28;20188;-66
2022/12/25 11:09:34;;;;;;;25.23;13.50;;;9.70;99.90;;;;;;5066990;28;20279;-66
2022/12/25 11:12:03;;;;;;;38.60;15.07;;;9.70;99.90;;;;;;5070486;28;20594;-66
2022/12/25 11:14:31;;;;;;;28.70;14.03;;;9.70;99.90;;;;;;5070813;28;20571;-66
2022/12/25 11:17:08;;;;;;;26.47;13.73;;;9.80;99.90;;;;;;5068334;28;20188;-66
2022/12/25 11:19:38;;;;;;;25.10;13.97;;;9.80;99.90;;;;;;5066918;28;20208;-66
2022/12/25 11:22:18;;;;;;;28.83;14.43;;;9.80;99.90;;;;;;5067787;28;20274;-66
2022/12/25 11:24:46;;;;;;;38.87;15.57;;;9.70;99.90;;;;;;5069802;28;20266;-66
2022/12/25 11:27:22;;;;;;;38.43;16.07;;;9.70;99.90;;;;;;5067237;28;20192;-66
2022/12/25 11:29:53;;;;;;;36.33;16.07;;;9.70;99.90;;;;;;5066885;28;20191;-66
2022/12/25 11:32:27;;;;;;;33.87;15.47;;;9.70;99.90;;;;;;5067204;28;20207;-66
2022/12/25 11:34:58;;;;;;;37.77;16.33;;;9.70;99.90;;;;;;5067608;28;20218;-66
2022/12/25 11:37:33;;;;;;;31.03;15.67;;;9.70;99.90;;;;;;5065281;28;20196;-66
2022/12/25 11:40:02;;;;;;;33.03;16.63;;;9.70;99.90;;;;;;5068868;28;20209;-66
2022/12/25 11:42:34;;;;;;;41.17;17.20;;;9.70;99.90;;;;;;5070855;28;20597;-66
2022/12/25 11:45:07;;;;;;;39.73;16.80;;;9.70;99.90;;;;;;5067117;28;20216;-66
2022/12/25 11:47:40;;;;;;;38.80;17.30;;;9.70;99.90;;;;;;5067100;28;20224;-66
2022/12/25 11:50:22;;;;;;;36.23;17.97;;;9.70;99.90;;;;;;5066578;28;20199;-66
2022/12/25 11:52:52;;;;;;;30.20;15.27;;;9.70;99.90;;;;;;5069288;28;20196;-66
2022/12/25 11:55:28;;;;;;;35.17;15.90;;;9.80;99.90;;;;;;5060695;28;20208;-66
2022/12/25 11:58:01;;;;;;;34.33;16.67;;;9.80;99.90;;;;;;5049863;28;20646;-66
2022/12/25 12:00:32;;;;;;;35.67;17.53;;;9.80;99.90;;;;;;5047948;28;20200;-66
2022/12/25 12:03:05;;;;;;;31.37;15.83;;;9.80;99.90;;;;;;5055966;28;20196;-66
2022/12/25 12:05:43;;;;;;;38.10;18.00;;;9.80;99.90;;;;;;5048591;28;20199;-66
2022/12/25 12:08:12;;;;;;;30.57;18.03;;;9.90;99.90;;;;;;5062534;28;20542;-66
2022/12/25 12:10:58;;;;;;;35.73;18.47;;;9.90;99.90;;;;;;5063036;28;20228;-66
2022/12/25 12:13:43;;;;;;;34.13;17.97;;;9.90;99.90;;;;;;5070252;28;20192;-66
2022/12/25 12:16:12;;;;;;;33.20;17.37;;;9.90;99.90;;;;;;5062787;28;20212;-66
2022/12/25 12:18:43;;;;;;;41.23;19.10;;;9.90;99.90;;;;;;5067509;28;20204;-65
2022/12/25 12:21:23;;;;;;;38.87;19.13;;;9.90;99.90;;;;;;5061920;28;20647;-65
2022/12/25 12:23:56;;;;;;;36.47;18.17;;;9.90;99.90;;;;;;5067812;28;20199;-65
2022/12/25 12:26:27;;;;;;;33.93;17.67;;;9.90;99.90;;;;;;5065049;28;20216;-65
2022/12/25 12:28:58;;;;;;;36.43;18.03;;;9.80;99.90;;;;;;5064817;28;20584;-65
2022/12/25 12:31:37;;;;;;;40.03;18.73;;;9.80;99.90;;;;;;5062566;28;20196;-65
2022/12/25 12:34:14;;;;;;;36.23;18.30;;;9.80;99.90;;;;;;5072732;28;20199;-65
2022/12/25 12:36:44;;;;;;;41.30;19.87;;;9.80;99.90;;;;;;5062280;28;20192;-65
2022/12/25 12:39:22;;;;;;;45.57;19.70;;;9.80;99.90;;;;;;5063424;28;20674;-66
2022/12/25 12:41:51;;;;;;;41.30;20.53;;;9.80;99.90;;;;;;5066686;28;20698;-65
2022/12/25 12:44:22;;;;;;;153.83;65.50;;;9.80;99.90;;;;;;5068968;28;20251;-65
2022/12/25 12:46:53;;;;;;;104.80;41.30;;;9.80;99.90;;;;;;5070932;28;20199;-65
2022/12/25 12:49:24;;;;;;;34.80;16.10;;;9.80;99.90;;;;;;5059066;28;20184;-66
2022/12/25 12:52:06;;;;;;;24.60;13.33;;;9.80;99.90;;;;;;5063688;28;20289;-66
2022/12/25 12:54:55;;;;;;;25.00;13.43;;;9.90;99.90;;;;;;5066397;28;20196;-65
2022/12/25 12:57:25;;;;;;;26.17;13.53;;;9.90;99.90;;;;;;5070810;28;20239;-65
2022/12/25 12:59:56;;;;;;;24.17;13.00;;;9.90;99.90;;;;;;5067276;28;20249;-65
2022/12/25 13:02:55;;;;;;;33.27;17.30;;;9.90;99.90;;;;;;5060373;28;20255;-65
2022/12/25 13:05:34;;;;;;;30.20;17.47;;;9.90;99.90;;;;;;5056876;28;20749;-65
2022/12/25 13:08:20;;;;;;;47.33;23.03;;;9.90;99.90;;;;;;5063473;28;20207;-65
2022/12/25 13:10:50;;;;;;;31.73;16.07;;;9.90;99.90;;;;;;5069022;28;20263;-65
2022/12/25 13:13:22;;;;;;;34.37;17.37;;;9.90;99.90;;;;;;5066691;28;20199;-65
2022/12/25 13:15:52;;;;;;;34.77;18.97;;;9.90;99.90;;;;;;5070424;28;20306;-66
2022/12/25 13:18:20;;;;;;;42.63;20.27;;;10.00;99.90;;;;;;5062450;28;20216;-65
2022/12/25 13:20:55;;;;;;;37.27;20.87;;;9.90;99.90;;;;;;5060795;28;20204;-65
2022/12/25 13:23:27;;;;;;;34.70;19.83;;;9.90;99.90;;;;;;5064233;28;20213;-65
2022/12/25 13:25:58;;;;;;;32.63;18.60;;;9.90;99.90;;;;;;5066267;28;20192;-65
2022/12/25 13:28:28;;;;;;;37.17;19.17;;;9.90;99.90;;;;;;5067737;28;20207;-65
2022/12/25 13:31:05;;;;;;;38.43;18.77;;;9.90;99.90;;;;;;5067961;28;20207;-65
2022/12/25 13:33:34;;;;;;;40.33;22.23;;;9.90;99.90;;;;;;5060889;28;20195;-65
2022/12/25 13:36:04;;;;;;;43.53;21.80;;;9.90;99.90;;;;;;5064567;28;20310;-66
2022/12/25 13:38:33;;;;;;;42.63;22.37;;;9.90;99.90;;;;;;5070948;28;20201;-66
2022/12/25 13:43:49;;;;;;;35.90;18.40;;;9.90;99.90;;;;;;5066179;28;20197;-66
2022/12/25 13:46:25;;;;;;;38.50;19.13;;;9.90;99.90;;;;;;5055164;28;20193;-66
2022/12/25 13:48:59;;;;;;;42.33;19.37;;;9.90;99.90;;;;;;5061114;28;20202;-66
2022/12/25 13:51:28;;;;;;;35.60;18.40;;;9.90;99.90;;;;;;5066304;28;20211;-66
2022/12/25 13:54:05;;;;;;;38.50;20.50;;;9.90;99.90;;;;;;5064494;28;20192;-66
2022/12/25 13:56:35;;;;;;;46.43;22.43;;;9.90;99.90;;;;;;5063589;28;20664;-66
2022/12/25 13:59:04;;;;;;;40.60;20.43;;;9.90;99.90;;;;;;5061943;28;20207;-66
2022/12/25 14:01:33;;;;;;;41.87;21.73;;;9.90;99.90;;;;;;5060269;28;20203;-66
2022/12/25 14:04:03;;;;;;;51.87;22.13;;;9.90;99.90;;;;;;5063374;28;20274;-66
2022/12/25 14:06:32;;;;;;;46.20;23.70;;;9.90;99.90;;;;;;5062235;28;20672;-66
2022/12/25 14:09:00;;;;;;;43.73;22.00;;;9.90;99.90;;;;;;5064714;28;20196;-66
2022/12/25 14:11:32;;;;;;;43.23;20.53;;;9.90;99.90;;;;;;5062828;28;20239;-66
2022/12/25 14:14:06;;;;;;;38.07;18.87;;;9.90;99.90;;;;;;5070541;28;20215;-66
2022/12/25 14:16:34;;;;;;;38.10;18.37;;;9.90;99.90;;;;;;5062172;28;20227;-66
2022/12/25 14:19:03;;;;;;;43.90;21.17;;;9.90;99.90;;;;;;5065162;28;20196;-66
2022/12/25 14:21:34;;;;;;;41.23;21.97;;;10.00;99.90;;;;;;5082029;28;20212;-66
2022/12/25 14:24:02;;;;;;;45.40;19.93;;;10.00;99.90;;;;;;5067858;28;20272;-66
2022/12/25 14:26:33;;;;;;;41.27;19.00;;;9.90;99.90;;;;;;5060833;28;20204;-66
2022/12/25 14:29:09;;;;;;;43.17;19.80;;;10.00;99.90;;;;;;5066099;28;20184;-66
2022/12/25 14:31:45;;;;;;;38.47;18.07;;;10.00;99.90;;;;;;5071516;28;20538;-66
2022/12/25 14:34:17;;;;;;;40.57;18.53;;;10.00;99.90;;;;;;5067909;28;20273;-66
2022/12/25 14:36:46;;;;;;;44.83;20.37;;;9.90;99.90;;;;;;5065497;28;20204;-66
2022/12/25 14:39:28;;;;;;;46.70;20.23;;;9.90;99.90;;;;;;5068056;28;20195;-66
2022/12/25 14:41:58;;;;;;;54.43;22.03;;;9.90;99.90;;;;;;5066413;28;20200;-66
2022/12/25 14:44:32;;;;;;;34.73;17.93;;;9.90;99.90;;;;;;5069761;28;20196;-66
2022/12/25 14:47:16;;;;;;;37.97;18.40;;;9.90;99.90;;;;;;5068735;28;20200;-66
2022/12/25 14:49:45;;;;;;;52.93;20.30;;;9.90;99.90;;;;;;5070386;28;20224;-66